Авиационная погода в Астрахани

СКИДКИ НА СМАРТФОНЫ!

Регион: 
Погода METAR: 
URWA 091530Z 17002MPS 9999 SCT040CB 29/13 Q1014 R27/010070 TEMPO 4000 -TSRA BKN030CB RMK QFE762/1017
Время наблюдения
2022-08-09T15:30:00Z
Температура C
29.0
Точка росы
13.0
Направление ветра
170
Скорость ветра (узлы)
4
Метео видимость
6.21
Облачность
SCT
Нижняя граница облачности (футы)
4000
Явления погоды
Условия полета
VFR
Аэропорт подробнее: 
SCT – разбросанная отдельная облачность;

Скидки на навигаторы!